Pittsburg, NH

5:28 PM EDT on July 06, 2015 (GMT -0400)
Tranquility Base | | Change Station
CLOSE
Current Station
Personal Weather Station
Location: Pittsburg, NH
Elevation: 1581 ft
Nearby Weather Stations

Elev 1581 ft 45.06 °N, 71.31 °W | Updated 58 seconds ago

Partly Cloudy
Partly Cloudy
75.9 °F
Feels Like 78 °F
N
0.0
Wind Variable Wind from WSW
Gusts 0.0 mph

Today
High -- | Low -- °F
--% Chance of Precip.
Yesterday
High -- | Low -- °F
Precip. -- in
5:05 AM 8:34 PM
Waning Gibbous, 72% visible
Pressure 30.11 in
Visibility 8.0 miles
Clouds Scattered Clouds 6000 ft
Heat Index 78 °F
Dew Point 64 °F
Humidity 67%
Rainfall 0.00 in
Snow Depth Not available.
UV 0.0 out of 12
Pollen 4.90 out of 12
Air Quality Not available.
Flu Activity Not available.
METAR KBML 062052Z AUTO 20005KT 8SM SCT060 28/14 A3012 RMK AO2 SLP196 T02830139 56014

More Conditions Fewer Conditions

Pressure 30.11 in
Visibility 8.0 miles
Clouds Scattered Clouds 6000 ft
Heat Index 78 °F
Dew Point 64 °F
Humidity 67%
Rainfall 0.00 in
Snow Depth Not available.
UV 0.0 out of 12
Pollen 4.90 out of 12
Air Quality Not available.
Flu Activity Not available.
METAR KBML 062052Z AUTO 20005KT 8SM SCT060 28/14 A3012 RMK AO2 SLP196 T02830139 56014

More Conditions Fewer Conditions

10-Day Weather Forecast

×

Almanac

Astronomy

Jul. 06, 2015 Rise Set
Actual Time
Civil Twilight
Nautical Twilight
Astronomical Twilight
Moon
Length of Visible Light
Length of Day
Tomorrow will be .
, % of the Moon is Illuminated

Today's Extremes

State Highs State Lows

Community

WunderPhotos

Upload Photos

1,835,653 photos uploaded!

WunderBlogs® & News

Nearby

Air Quality

  Air Quality AQ Index Pollutant
Not available.

Snow Depth

Station Depth Elevation

Earthquake Activity

City Distance Mag. Time & Date
Minimum magnitude displayed is 2.5.

Coastal Water Temperatures

Place Temperature

Stations

Nearby Weather Stations

Station Location Temp. Windchill Dew Point Humidity Wind Precip. Elev Updated Type